Home > Products > Valid Products > MTR

000
SAUS46 KMTR 271057
MTRMHS
METAR KMHS 271056Z AUTO 04003KT 10SM CLR 12/04 A3014 RMK AO2 SLP189
T01220039





000
SAUS46 KMTR 270956
MTRMHS
METAR KMHS 270956Z AUTO 00000KT 10SM CLR 13/04 A3013 RMK AO2 SLP188
T01330039





000
SAUS46 KMTR 270956
MTRMHS
METAR KMHS 270956Z AUTO 00000KT 10SM CLR 13/04 A3013 RMK AO2 SLP188
T01330039





000
SAUS46 KMTR 270856
MTRMHS
METAR KMHS 270856Z AUTO 00000KT 10SM CLR 14/03 A3012 RMK AO2 SLP182
T01440033 53010





000
SAUS46 KMTR 270756
MTRMHS
METAR KMHS 270756Z AUTO 00000KT 10SM CLR 16/04 A3011 RMK AO2 SLP177
T01560039 403170078





000
SAUS46 KMTR 270656
MTRMHS
METAR KMHS 270656Z AUTO 00000KT 10SM CLR 16/04 A3009 RMK AO2 SLP174
T01610044





000
SAUS46 KMTR 270456
MTRMHS
METAR KMHS 270456Z AUTO 00000KT 10SM CLR 20/03 A3008 RMK AO2 SLP169
T02000033





000
SAUS46 KMTR 270356
MTRMHS
METAR KMHS 270356Z AUTO 00000KT 10SM CLR 19/06 A3006 RMK AO2 SLP168
T01890061





000
SAUS46 KMTR 270257
MTRMHS
METAR KMHS 270256Z AUTO VRB03KT 10SM CLR 24/04 A3003 RMK AO2 SLP158
T02440039 53004





000
SAUS46 KMTR 270156
MTRMHS
METAR KMHS 270156Z AUTO VRB03KT 10SM CLR 28/04 A3001 RMK AO2 SLP153
T02780039





000
SAUS46 KMTR 270057
MTRMHS
METAR KMHS 270056Z AUTO 10SM CLR 29/04 A3001 RMK AO2 SLP151
T02940044





000
SAUS46 KMTR 262356
MTRMHS
METAR KMHS 262356Z AUTO VRB04KT 10SM CLR 30/03 A3002 RMK AO2 SLP154
T03000033 10317 20261 56015





000
SAUS46 KMTR 262256
MTRMHS
METAR KMHS 262256Z AUTO VRB03KT 10SM CLR 32/05 A3003 RMK AO2 SLP155
T03170050





000
SAUS46 KMTR 262156
MTRMHS
METAR KMHS 262156Z AUTO 00000KT 10SM CLR 31/04 A3005 RMK AO2 SLP162
T03060039





000
SAUS46 KMTR 262056
MTRMHS
METAR KMHS 262056Z AUTO 00000KT 10SM CLR 31/04 A3007 RMK AO2 SLP168
T03060044 58012





000
SAUS46 KMTR 261957
MTRMHS
METAR KMHS 261956Z AUTO 00000KT 10SM CLR 29/04 A3008 RMK AO2 SLP173
T02940044





000
SAUS46 KMTR 261856
MTRMHS
METAR KMHS 261856Z AUTO 00000KT 10SM CLR 28/03 A3010 RMK AO2 SLP179
T02780033





000
SAUS46 KMTR 261756
MTRMHS
METAR KMHS 261756Z AUTO 10003KT 10SM CLR 26/04 A3011 RMK AO2 SLP182
T02610044 10261 20078 58003





000
SAUS46 KMTR 261656
MTRMHS
METAR KMHS 261656Z AUTO 00000KT 10SM CLR 24/06 A3011 RMK AO2 SLP184
T02440061





000
SAUS46 KMTR 261556
MTRMHS
METAR KMHS 261556Z AUTO 00000KT 10SM CLR 19/07 A3012 RMK AO2 SLP188
T01940072





000
SAUS46 KMTR 261456
MTRMHS
METAR KMHS 261456Z AUTO 00000KT 10SM CLR 14/06 A3012 RMK AO2 SLP191
T01390056 51013





000
SAUS46 KMTR 261356
MTRMHS
METAR KMHS 261356Z AUTO 00000KT 10SM CLR 09/04 A3011 RMK AO2 SLP189
T00940039





000
SAUS46 KMTR 261258
MTRMHS
METAR KMHS 261256Z AUTO 00000KT 10SM CLR 10/04 A3009 RMK AO2 SLP181
T01000039





000
SAUS46 KMTR 261158
MTRMHS
METAR KMHS 261156Z AUTO 00000KT 10SM CLR 08/04 A3008 RMK AO2 SLP180
T00830039 10144 20083 52004





000
SAUS46 KMTR 261057
MTRMHS
METAR KMHS 261056Z AUTO 00000KT 10SM CLR 09/03 A3008 RMK AO2 SLP175
T00940033





000
SAUS46 KMTR 260956
MTRMHS
METAR KMHS 260956Z AUTO 00000KT 10SM CLR 11/04 A3007 RMK AO2 SLP170
T01060039





000
SAUS46 KMTR 260856
MTRMHS
METAR KMHS 260856Z AUTO 00000KT 10SM CLR 11/04 A3006 RMK AO2 SLP171
T01110039 51010





000
SAUS46 KMTR 260756
MTRMHS
METAR KMHS 260756Z AUTO 00000KT 10SM CLR 12/04 A3005 RMK AO2 SLP166
T01220039 402890089





000
SAUS46 KMTR 260657
MTRMHS
METAR KMHS 260656Z AUTO 00000KT 10SM CLR 14/04 A3005 RMK AO2 SLP163
T01390044





000
SAUS46 KMTR 260556
MTRMHS
METAR KMHS 260556Z AUTO 00000KT 10SM CLR 14/04 A3003 RMK AO2 SLP159
T01440044 10272 20139 51023





000
SAUS46 KMTR 260456
MTRMHS
METAR KMHS 260456Z AUTO 00000KT 10SM CLR 17/06 A3001 RMK AO2 SLP153
T01670056





000
SAUS46 KMTR 260257
MTRMHS
METAR KMHS 260256Z AUTO 00000KT 10SM FEW100 23/03 A2996 RMK AO2
SLP135 T02280028 53009





000
SAUS46 KMTR 260157
MTRMHS
METAR KMHS 260156Z AUTO 00000KT 10SM CLR 26/03 A2993 RMK AO2 SLP128
T02610028





000
SAUS46 KMTR 260058
MTRMHS
METAR KMHS 260056Z AUTO 02004KT 10SM BKN100 26/05 A2993 RMK AO2
SLP126 T02610050





000
SAUS46 KMTR 252356
MTRMHS
METAR KMHS 252356Z AUTO 00000KT 10SM OVC090 26/07 A2993 RMK AO2
SLP124 T02610072 10289 20233 55004





000
SAUS46 KMTR 252256
MTRMHS
METAR KMHS 252256Z AUTO 00000KT 10SM BKN095 28/07 A2992 RMK AO2
SLP120 T02780072





000
SAUS46 KMTR 252158
MTRMHS
METAR KMHS 252156Z AUTO 00000KT 10SM BKN090 28/07 A2993 RMK AO2
SLP120 T02830067





000
SAUS46 KMTR 252057
MTRMHS
METAR KMHS 252056Z AUTO 00000KT 10SM BKN090 27/07 A2994 RMK AO2
SLP122 T02670067 57006





000
SAUS46 KMTR 251958
MTRMHS
METAR KMHS 251956Z AUTO 00000KT 10SM FEW090 27/07 A2995 RMK AO2
SLP123 T02670067





000
SAUS46 KMTR 251857
MTRMHS
METAR KMHS 251856Z AUTO VRB03KT 10SM CLR 26/07 A2995 RMK AO2 SLP127
T02560067





000
SAUS46 KMTR 251756
MTRMHS
METAR KMHS 251756Z AUTO VRB05KT 10SM CLR 23/07 A2996 RMK AO2 SLP129
T02330067 10233 20089 51005





000
SAUS46 KMTR 251656
MTRMHS
METAR KMHS 251656Z AUTO VRB03KT 10SM CLR 21/06 A2996 RMK AO2 SLP130
T02110061





000
SAUS46 KMTR 251556
MTRMHS
METAR KMHS 251556Z AUTO VRB03KT 10SM CLR 19/06 A2995 RMK AO2 SLP128
T01890061





000
SAUS46 KMTR 251457
MTRMHS
METAR KMHS 251456Z AUTO 00000KT 10SM CLR 14/06 A2994 RMK AO2 SLP132
T01390056 51013





000
SAUS46 KMTR 251357
MTRMHS
METAR KMHS 251356Z AUTO 06003KT 10SM CLR 09/04 A2994 RMK AO2 SLP129
T00940044





000
SAUS46 KMTR 251256
MTRMHS
METAR KMHS 251256Z AUTO 00000KT 10SM CLR 09/04 A2991 RMK AO2 SLP120
T00940039





000
SAUS46 KMTR 251157
MTRMHS
METAR KMHS 251156Z AUTO 00000KT 10SM CLR 11/04 A2990 RMK AO2 SLP113
T01060039 10200 20100 56001





000
SAUS46 KMTR 251056
MTRMHS
METAR KMHS 251056Z AUTO 00000KT 10SM CLR 12/05 A2990 RMK AO2 SLP111
T01170050





000
SAUS46 KMTR 250958
MTRMHS
METAR KMHS 250956Z AUTO 00000KT 10SM CLR 13/04 A2990 RMK AO2 SLP109
T01330044





000
SAUS46 KMTR 250857
MTRMHS
METAR KMHS 250856Z AUTO 00000KT 10SM CLR 16/04 A2991 RMK AO2 SLP108
T01610039 51005





000
SAUS46 KMTR 250756
MTRMHS
METAR KMHS 250756Z AUTO VRB03KT 10SM CLR 17/04 A2990 RMK AO2 SLP107
T01720039 403060089





000
SAUS46 KMTR 250657
MTRMHS
METAR KMHS 250656Z AUTO 00000KT 10SM CLR 17/04 A2990 RMK AO2 SLP109
T01720039





000
SAUS46 KMTR 250456
MTRMHS
METAR KMHS 250456Z AUTO VRB03KT 10SM CLR 21/04 A2987 RMK AO2 SLP099
T02060044





000
SAUS46 KMTR 250357
MTRMHS
METAR KMHS 250356Z AUTO VRB06KT 7SM OVC060 22/05 A2986 RMK AO2
SLP096 T02170050





000
SAUS46 KMTR 250345
MTRMHS
SPECI KMHS 250344Z AUTO VRB03KT 4SM HZ OVC060 21/05 A2985 RMK AO2
T02110050





000
SAUS46 KMTR 250315
MTRMHS
SPECI KMHS 250314Z AUTO 00000KT 2 1/2SM HZ OVC055 21/04 A2984 RMK
AO2 T02110044





000
SAUS46 KMTR 250257
MTRMHS
METAR KMHS 250256Z AUTO 00000KT 1 1/2SM HZ OVC048 22/04 A2984 RMK
AO2 SLP096 T02170044 53002





000
SAUS46 KMTR 250215
MTRMHS
SPECI KMHS 250215Z AUTO VRB03KT 1 1/4SM HZ OVC038 25/03 A2983 RMK
AO2 T02500028





000
SAUS46 KMTR 250158
MTRMHS
METAR KMHS 250156Z AUTO VRB05KT 1 1/2SM HZ BKN036 OVC045 26/03 A2983
RMK AO2 SLP093 T02610028





000
SAUS46 KMTR 250152
MTRMHS
SPECI KMHS 250151Z AUTO VRB05KT 1 3/4SM HZ OVC036 26/02 A2983 RMK
AO2





000
SAUS46 KMTR 250136
MTRMHS
SPECI KMHS 250136Z AUTO VRB03KT 2 1/2SM HZ OVC034 27/02 A2983 RMK
AO2 T02670022





000
SAUS46 KMTR 250057
MTRMHS
METAR KMHS 250056Z AUTO VRB03KT 4SM HZ BKN039 27/05 A2983 RMK AO2
SLP093 T02720050





000
SAUS46 KMTR 242356
MTRMHS
METAR KMHS 242356Z AUTO 36005KT 8SM CLR 28/04 A2984 RMK AO2 SLP093
T02830039 10306 20244 56023





000
SAUS46 KMTR 242256
MTRMHS
METAR KMHS 242256Z AUTO VRB03KT 10SM CLR 30/04 A2986 RMK AO2 SLP096
T03000044





000
SAUS46 KMTR 242157
MTRMHS
METAR KMHS 242156Z AUTO VRB03KT 10SM CLR 29/03 A2989 RMK AO2 SLP106
T02940033





000
SAUS46 KMTR 242057
MTRMHS
METAR KMHS 242056Z AUTO 26005KT 10SM CLR 29/04 A2991 RMK AO2 SLP114
T02890039 58020





000
SAUS46 KMTR 241956
MTRMHS
METAR KMHS 241956Z AUTO VRB03KT 10SM CLR 28/04 A2994 RMK AO2 SLP119
T02830044





000
SAUS46 KMTR 241857
MTRMHS
METAR KMHS 241856Z AUTO 29006KT 10SM CLR 26/04 A2997 RMK AO2 SLP132
T02610044





000
SAUS46 KMTR 241756
MTRMHS
METAR KMHS 241756Z AUTO 30007KT 10SM CLR 24/06 A2998 RMK AO2 SLP141
T02440056 10250 20089 58009





000
SAUS46 KMTR 241656
MTRMHS
METAR KMHS 241656Z AUTO VRB05KT 10SM CLR 23/06 A2999 RMK AO2 SLP144
T02280061





000
SAUS46 KMTR 241556
MTRMHS
METAR KMHS 241556Z AUTO VRB03KT 10SM CLR 20/06 A3000 RMK AO2 SLP148
T02000056





000
SAUS46 KMTR 241457
MTRMHS
METAR KMHS 241456Z AUTO 06003KT 10SM CLR 14/04 A3001 RMK AO2 SLP155
T01390039 50000





000
SAUS46 KMTR 241357
MTRMHS
METAR KMHS 241356Z AUTO 05003KT 10SM CLR 09/03 A3001 RMK AO2 SLP158
T00890028





000
SAUS46 KMTR 241256
MTRMHS
METAR KMHS 241256Z AUTO 04003KT 10SM CLR 09/03 A3001 RMK AO2 SLP153
T00940028





    US Dept of Commerce
    National Oceanic and Atmospheric Administration
    National Weather Service
    1325 East West Highway
    Silver Spring, MD 20910
    Page Author: NWS Internet Services Team
Disclaimer
Information Quality
Credits
Glossary
Privacy Policy
Freedom of Information Act (FOIA)
About Us
Career Opportunities